sensor_id;sensor_type;location;lat;lon;timestamp;P1;durP1;ratioP1;P2;durP2;ratioP2
17091;SDS011;8661;45.700;4.880;2023-03-24T00:01:47;1.73;;;1.20;;
17091;SDS011;8661;45.700;4.880;2023-03-24T00:04:14;6.90;;;1.17;;
17091;SDS011;8661;45.700;4.880;2023-03-24T00:06:41;2.10;;;0.90;;
17091;SDS011;8661;45.700;4.880;2023-03-24T00:09:08;3.20;;;1.00;;
17091;SDS011;8661;45.700;4.880;2023-03-24T00:11:37;2.10;;;0.83;;
17091;SDS011;8661;45.700;4.880;2023-03-24T00:14:04;1.90;;;1.00;;
17091;SDS011;8661;45.700;4.880;2023-03-24T00:16:31;2.90;;;1.07;;
17091;SDS011;8661;45.700;4.880;2023-03-24T00:18:59;3.07;;;1.20;;
17091;SDS011;8661;45.700;4.880;2023-03-24T00:21:26;2.53;;;1.07;;
17091;SDS011;8661;45.700;4.880;2023-03-24T00:23:53;4.07;;;1.30;;
17091;SDS011;8661;45.700;4.880;2023-03-24T00:26:22;2.50;;;0.97;;
17091;SDS011;8661;45.700;4.880;2023-03-24T00:28:51;3.67;;;1.20;;
17091;SDS011;8661;45.700;4.880;2023-03-24T00:31:18;3.27;;;1.37;;
17091;SDS011;8661;45.700;4.880;2023-03-24T00:33:46;2.63;;;1.10;;
17091;SDS011;8661;45.700;4.880;2023-03-24T00:36:15;4.00;;;1.03;;
17091;SDS011;8661;45.700;4.880;2023-03-24T00:38:43;2.53;;;1.10;;
17091;SDS011;8661;45.700;4.880;2023-03-24T00:41:12;1.20;;;1.10;;
17091;SDS011;8661;45.700;4.880;2023-03-24T00:43:41;1.67;;;1.07;;
17091;SDS011;8661;45.700;4.880;2023-03-24T00:46:12;1.37;;;1.00;;
17091;SDS011;8661;45.700;4.880;2023-03-24T00:48:52;2.40;;;1.13;;
17091;SDS011;8661;45.700;4.880;2023-03-24T00:51:22;3.20;;;1.20;;
17091;SDS011;8661;45.700;4.880;2023-03-24T00:53:49;2.30;;;1.10;;
17091;SDS011;8661;45.700;4.880;2023-03-24T00:56:21;1.93;;;1.20;;
17091;SDS011;8661;45.700;4.880;2023-03-24T00:58:49;3.00;;;1.10;;
17091;SDS011;8661;45.700;4.880;2023-03-24T01:01:18;1.93;;;1.10;;
17091;SDS011;8661;45.700;4.880;2023-03-24T01:03:46;4.00;;;1.00;;
17091;SDS011;8661;45.700;4.880;2023-03-24T01:06:14;1.67;;;1.00;;
17091;SDS011;8661;45.700;4.880;2023-03-24T01:08:42;1.93;;;1.03;;
17091;SDS011;8661;45.700;4.880;2023-03-24T01:11:09;16.97;;;2.07;;
17091;SDS011;8661;45.700;4.880;2023-03-24T01:13:37;2.17;;;1.10;;
17091;SDS011;8661;45.700;4.880;2023-03-24T01:16:05;3.17;;;1.10;;
17091;SDS011;8661;45.700;4.880;2023-03-24T01:18:34;1.70;;;1.13;;
17091;SDS011;8661;45.700;4.880;2023-03-24T01:21:05;1.37;;;1.00;;
17091;SDS011;8661;45.700;4.880;2023-03-24T01:23:33;1.43;;;0.97;;
17091;SDS011;8661;45.700;4.880;2023-03-24T01:26:03;2.07;;;1.23;;
17091;SDS011;8661;45.700;4.880;2023-03-24T01:28:31;4.03;;;1.13;;
17091;SDS011;8661;45.700;4.880;2023-03-24T01:31:04;2.53;;;1.30;;
17091;SDS011;8661;45.700;4.880;2023-03-24T01:33:34;1.60;;;1.17;;
17091;SDS011;8661;45.700;4.880;2023-03-24T01:36:01;2.07;;;1.13;;
17091;SDS011;8661;45.700;4.880;2023-03-24T01:38:28;2.73;;;1.03;;
17091;SDS011;8661;45.700;4.880;2023-03-24T01:40:55;3.07;;;1.40;;
17091;SDS011;8661;45.700;4.880;2023-03-24T01:43:23;2.50;;;1.30;;
17091;SDS011;8661;45.700;4.880;2023-03-24T01:45:57;2.37;;;1.30;;
17091;SDS011;8661;45.700;4.880;2023-03-24T01:48:28;3.10;;;1.20;;
17091;SDS011;8661;45.700;4.880;2023-03-24T01:51:04;2.33;;;1.33;;
17091;SDS011;8661;45.700;4.880;2023-03-24T01:53:34;1.30;;;1.20;;
17091;SDS011;8661;45.700;4.880;2023-03-24T01:56:04;5.20;;;1.87;;
17091;SDS011;8661;45.700;4.880;2023-03-24T01:58:32;1.40;;;1.27;;
17091;SDS011;8661;45.700;4.880;2023-03-24T02:01:02;3.43;;;1.40;;
17091;SDS011;8661;45.700;4.880;2023-03-24T02:03:30;2.67;;;1.40;;
17091;SDS011;8661;45.700;4.880;2023-03-24T02:06:00;2.80;;;1.40;;
17091;SDS011;8661;45.700;4.880;2023-03-24T02:08:30;3.27;;;1.60;;
17091;SDS011;8661;45.700;4.880;2023-03-24T02:11:01;1.80;;;1.20;;
17091;SDS011;8661;45.700;4.880;2023-03-24T02:13:28;2.17;;;1.50;;
17091;SDS011;8661;45.700;4.880;2023-03-24T02:16:03;2.37;;;1.30;;
17091;SDS011;8661;45.700;4.880;2023-03-24T02:18:41;1.53;;;1.43;;
17091;SDS011;8661;45.700;4.880;2023-03-24T02:24:34;3.47;;;1.50;;
17091;SDS011;8661;45.700;4.880;2023-03-24T02:27:35;3.97;;;1.87;;
17091;SDS011;8661;45.700;4.880;2023-03-24T02:33:44;3.67;;;1.70;;
17091;SDS011;8661;45.700;4.880;2023-03-24T02:36:40;2.23;;;1.80;;
17091;SDS011;8661;45.700;4.880;2023-03-24T02:42:22;4.27;;;2.07;;
17091;SDS011;8661;45.700;4.880;2023-03-24T02:45:01;2.83;;;2.20;;
17091;SDS011;8661;45.700;4.880;2023-03-24T02:47:40;4.67;;;2.27;;
17091;SDS011;8661;45.700;4.880;2023-03-24T02:50:14;2.63;;;2.43;;
17091;SDS011;8661;45.700;4.880;2023-03-24T02:52:49;4.47;;;2.60;;
17091;SDS011;8661;45.700;4.880;2023-03-24T02:55:28;3.60;;;2.10;;
17091;SDS011;8661;45.700;4.880;2023-03-24T02:58:00;3.23;;;1.97;;
17091;SDS011;8661;45.700;4.880;2023-03-24T03:00:30;5.03;;;2.47;;
17091;SDS011;8661;45.700;4.880;2023-03-24T03:03:02;3.00;;;2.10;;
17091;SDS011;8661;45.700;4.880;2023-03-24T03:05:34;2.83;;;2.20;;
17091;SDS011;8661;45.700;4.880;2023-03-24T03:08:05;2.87;;;1.90;;
17091;SDS011;8661;45.700;4.880;2023-03-24T03:10:36;3.27;;;2.03;;
17091;SDS011;8661;45.700;4.880;2023-03-24T03:13:06;3.07;;;1.70;;
17091;SDS011;8661;45.700;4.880;2023-03-24T03:15:38;3.03;;;1.80;;
17091;SDS011;8661;45.700;4.880;2023-03-24T03:18:10;2.80;;;1.40;;
17091;SDS011;8661;45.700;4.880;2023-03-24T03:20:43;2.53;;;1.50;;
17091;SDS011;8661;45.700;4.880;2023-03-24T03:23:18;2.83;;;1.57;;
17091;SDS011;8661;45.700;4.880;2023-03-24T03:25:52;1.93;;;1.40;;
17091;SDS011;8661;45.700;4.880;2023-03-24T03:28:27;2.47;;;1.30;;
17091;SDS011;8661;45.700;4.880;2023-03-24T03:30:56;2.70;;;1.30;;
17091;SDS011;8661;45.700;4.880;2023-03-24T03:33:28;2.27;;;1.43;;
17091;SDS011;8661;45.700;4.880;2023-03-24T03:36:01;2.57;;;1.40;;
17091;SDS011;8661;45.700;4.880;2023-03-24T03:38:34;2.57;;;1.40;;
17091;SDS011;8661;45.700;4.880;2023-03-24T03:41:09;4.20;;;1.70;;
17091;SDS011;8661;45.700;4.880;2023-03-24T03:43:36;2.27;;;1.40;;
17091;SDS011;8661;45.700;4.880;2023-03-24T03:46:03;3.10;;;1.60;;
17091;SDS011;8661;45.700;4.880;2023-03-24T03:48:31;2.10;;;1.40;;
17091;SDS011;8661;45.700;4.880;2023-03-24T03:50:59;4.00;;;1.80;;
17091;SDS011;8661;45.700;4.880;2023-03-24T03:53:29;3.00;;;1.50;;
17091;SDS011;8661;45.700;4.880;2023-03-24T03:56:01;2.53;;;1.30;;
17091;SDS011;8661;45.700;4.880;2023-03-24T03:58:30;2.23;;;1.40;;
17091;SDS011;8661;45.700;4.880;2023-03-24T04:00:57;2.53;;;1.40;;
17091;SDS011;8661;45.700;4.880;2023-03-24T04:03:30;4.10;;;1.40;;
17091;SDS011;8661;45.700;4.880;2023-03-24T04:06:09;1.40;;;1.30;;
17091;SDS011;8661;45.700;4.880;2023-03-24T04:08:45;3.03;;;1.30;;
17091;SDS011;8661;45.700;4.880;2023-03-24T04:14:31;1.73;;;1.50;;
17091;SDS011;8661;45.700;4.880;2023-03-24T04:17:23;2.70;;;1.40;;
17091;SDS011;8661;45.700;4.880;2023-03-24T04:20:00;2.50;;;1.60;;
17091;SDS011;8661;45.700;4.880;2023-03-24T04:22:37;4.27;;;1.80;;
17091;SDS011;8661;45.700;4.880;2023-03-24T04:25:14;3.17;;;2.00;;
17091;SDS011;8661;45.700;4.880;2023-03-24T04:27:47;2.80;;;1.87;;
17091;SDS011;8661;45.700;4.880;2023-03-24T04:30:27;2.37;;;2.10;;
17091;SDS011;8661;45.700;4.880;2023-03-24T04:33:04;1.77;;;1.67;;
17091;SDS011;8661;45.700;4.880;2023-03-24T04:35:36;4.33;;;2.30;;
17091;SDS011;8661;45.700;4.880;2023-03-24T04:38:09;2.87;;;1.90;;
17091;SDS011;8661;45.700;4.880;2023-03-24T04:40:41;2.20;;;1.73;;
17091;SDS011;8661;45.700;4.880;2023-03-24T04:43:14;2.90;;;2.03;;
17091;SDS011;8661;45.700;4.880;2023-03-24T04:45:44;4.50;;;2.00;;
17091;SDS011;8661;45.700;4.880;2023-03-24T04:48:14;3.97;;;2.03;;
17091;SDS011;8661;45.700;4.880;2023-03-24T04:50:43;4.53;;;2.40;;
17091;SDS011;8661;45.700;4.880;2023-03-24T04:53:18;3.17;;;2.03;;
17091;SDS011;8661;45.700;4.880;2023-03-24T04:55:50;2.40;;;2.10;;
17091;SDS011;8661;45.700;4.880;2023-03-24T04:58:25;4.30;;;1.90;;
17091;SDS011;8661;45.700;4.880;2023-03-24T05:00:53;3.60;;;2.20;;
17091;SDS011;8661;45.700;4.880;2023-03-24T05:03:22;1.97;;;1.70;;
17091;SDS011;8661;45.700;4.880;2023-03-24T05:05:50;4.10;;;2.30;;
17091;SDS011;8661;45.700;4.880;2023-03-24T05:08:18;2.47;;;1.90;;
17091;SDS011;8661;45.700;4.880;2023-03-24T05:10:45;2.93;;;2.00;;
17091;SDS011;8661;45.700;4.880;2023-03-24T05:13:12;2.77;;;2.07;;
17091;SDS011;8661;45.700;4.880;2023-03-24T05:15:41;2.43;;;2.17;;
17091;SDS011;8661;45.700;4.880;2023-03-24T05:18:09;4.90;;;2.00;;
17091;SDS011;8661;45.700;4.880;2023-03-24T05:20:36;2.60;;;2.07;;
17091;SDS011;8661;45.700;4.880;2023-03-24T05:23:03;2.00;;;1.80;;
17091;SDS011;8661;45.700;4.880;2023-03-24T05:25:30;2.27;;;2.07;;
17091;SDS011;8661;45.700;4.880;2023-03-24T05:27:57;4.97;;;2.10;;
17091;SDS011;8661;45.700;4.880;2023-03-24T05:30:24;2.33;;;1.93;;
17091;SDS011;8661;45.700;4.880;2023-03-24T05:32:51;2.20;;;2.00;;
17091;SDS011;8661;45.700;4.880;2023-03-24T05:35:19;2.03;;;1.80;;
17091;SDS011;8661;45.700;4.880;2023-03-24T05:37:46;4.00;;;2.03;;
17091;SDS011;8661;45.700;4.880;2023-03-24T05:40:13;3.13;;;2.03;;
17091;SDS011;8661;45.700;4.880;2023-03-24T05:42:42;3.23;;;1.90;;
17091;SDS011;8661;45.700;4.880;2023-03-24T05:45:09;2.23;;;1.77;;
17091;SDS011;8661;45.700;4.880;2023-03-24T05:47:37;2.67;;;1.83;;
17091;SDS011;8661;45.700;4.880;2023-03-24T05:50:04;3.97;;;2.00;;
17091;SDS011;8661;45.700;4.880;2023-03-24T05:52:33;2.90;;;2.10;;
17091;SDS011;8661;45.700;4.880;2023-03-24T05:55:00;2.07;;;1.57;;
17091;SDS011;8661;45.700;4.880;2023-03-24T05:57:27;2.50;;;2.00;;
17091;SDS011;8661;45.700;4.880;2023-03-24T05:59:55;2.43;;;1.70;;
17091;SDS011;8661;45.700;4.880;2023-03-24T06:02:22;2.97;;;1.50;;
17091;SDS011;8661;45.700;4.880;2023-03-24T06:04:49;3.03;;;1.53;;
17091;SDS011;8661;45.700;4.880;2023-03-24T06:07:17;1.70;;;1.50;;
17091;SDS011;8661;45.700;4.880;2023-03-24T06:09:46;3.20;;;1.70;;
17091;SDS011;8661;45.700;4.880;2023-03-24T06:12:14;1.57;;;1.47;;
17091;SDS011;8661;45.700;4.880;2023-03-24T06:14:41;1.80;;;1.60;;
17091;SDS011;8661;45.700;4.880;2023-03-24T06:17:09;3.03;;;1.60;;
17091;SDS011;8661;45.700;4.880;2023-03-24T06:19:39;1.97;;;1.57;;
17091;SDS011;8661;45.700;4.880;2023-03-24T06:22:14;2.27;;;1.50;;
17091;SDS011;8661;45.700;4.880;2023-03-24T06:24:41;2.27;;;1.57;;
17091;SDS011;8661;45.700;4.880;2023-03-24T06:27:10;2.13;;;1.60;;
17091;SDS011;8661;45.700;4.880;2023-03-24T06:29:38;2.20;;;1.93;;
17091;SDS011;8661;45.700;4.880;2023-03-24T06:32:06;1.80;;;1.70;;
17091;SDS011;8661;45.700;4.880;2023-03-24T06:34:33;1.97;;;1.70;;
17091;SDS011;8661;45.700;4.880;2023-03-24T06:37:00;1.90;;;1.80;;
17091;SDS011;8661;45.700;4.880;2023-03-24T06:39:27;2.07;;;1.80;;
17091;SDS011;8661;45.700;4.880;2023-03-24T06:41:54;3.57;;;1.80;;
17091;SDS011;8661;45.700;4.880;2023-03-24T06:44:22;1.97;;;1.67;;
17091;SDS011;8661;45.700;4.880;2023-03-24T06:46:49;1.73;;;1.50;;
17091;SDS011;8661;45.700;4.880;2023-03-24T06:49:16;2.20;;;1.60;;
17091;SDS011;8661;45.700;4.880;2023-03-24T06:51:43;5.00;;;1.87;;
17091;SDS011;8661;45.700;4.880;2023-03-24T06:54:10;1.50;;;1.40;;
17091;SDS011;8661;45.700;4.880;2023-03-24T06:56:37;2.57;;;1.50;;
17091;SDS011;8661;45.700;4.880;2023-03-24T06:59:04;2.73;;;1.73;;
17091;SDS011;8661;45.700;4.880;2023-03-24T07:01:32;4.20;;;2.03;;
17091;SDS011;8661;45.700;4.880;2023-03-24T07:04:00;1.73;;;1.40;;
17091;SDS011;8661;45.700;4.880;2023-03-24T07:06:27;2.97;;;1.73;;
17091;SDS011;8661;45.700;4.880;2023-03-24T07:08:54;4.40;;;2.37;;
17091;SDS011;8661;45.700;4.880;2023-03-24T07:11:21;2.60;;;2.07;;
17091;SDS011;8661;45.700;4.880;2023-03-24T07:13:48;2.50;;;1.60;;
17091;SDS011;8661;45.700;4.880;2023-03-24T07:16:15;2.00;;;1.80;;
17091;SDS011;8661;45.700;4.880;2023-03-24T07:18:43;2.20;;;1.73;;
17091;SDS011;8661;45.700;4.880;2023-03-24T07:21:10;2.30;;;1.60;;
17091;SDS011;8661;45.700;4.880;2023-03-24T07:23:37;2.67;;;1.90;;
17091;SDS011;8661;45.700;4.880;2023-03-24T07:26:04;2.47;;;1.70;;
17091;SDS011;8661;45.700;4.880;2023-03-24T07:28:32;1.93;;;1.70;;
17091;SDS011;8661;45.700;4.880;2023-03-24T07:31:00;5.73;;;3.17;;
17091;SDS011;8661;45.700;4.880;2023-03-24T07:33:28;3.60;;;2.53;;
17091;SDS011;8661;45.700;4.880;2023-03-24T07:35:57;6.90;;;2.83;;
17091;SDS011;8661;45.700;4.880;2023-03-24T07:38:24;3.00;;;1.87;;
17091;SDS011;8661;45.700;4.880;2023-03-24T07:40:51;2.40;;;2.00;;
17091;SDS011;8661;45.700;4.880;2023-03-24T07:43:18;1.63;;;1.47;;
17091;SDS011;8661;45.700;4.880;2023-03-24T07:45:46;1.77;;;1.37;;
17091;SDS011;8661;45.700;4.880;2023-03-24T07:48:13;3.13;;;1.70;;
17091;SDS011;8661;45.700;4.880;2023-03-24T07:50:40;3.77;;;1.60;;
17091;SDS011;8661;45.700;4.880;2023-03-24T07:53:08;2.13;;;1.70;;
17091;SDS011;8661;45.700;4.880;2023-03-24T07:55:35;4.20;;;1.80;;
17091;SDS011;8661;45.700;4.880;2023-03-24T07:58:02;1.63;;;1.40;;
17091;SDS011;8661;45.700;4.880;2023-03-24T08:00:30;2.20;;;1.57;;
17091;SDS011;8661;45.700;4.880;2023-03-24T08:02:58;3.20;;;1.60;;
17091;SDS011;8661;45.700;4.880;2023-03-24T08:05:25;2.20;;;1.87;;
17091;SDS011;8661;45.700;4.880;2023-03-24T08:07:54;4.07;;;1.70;;
17091;SDS011;8661;45.700;4.880;2023-03-24T08:10:24;2.73;;;1.50;;
17091;SDS011;8661;45.700;4.880;2023-03-24T08:12:52;1.80;;;1.70;;
17091;SDS011;8661;45.700;4.880;2023-03-24T08:15:20;2.63;;;1.40;;
17091;SDS011;8661;45.700;4.880;2023-03-24T08:17:47;2.90;;;1.93;;
17091;SDS011;8661;45.700;4.880;2023-03-24T08:20:16;1.70;;;1.40;;
17091;SDS011;8661;45.700;4.880;2023-03-24T08:22:45;3.43;;;1.73;;
17091;SDS011;8661;45.700;4.880;2023-03-24T08:25:14;2.73;;;1.50;;
17091;SDS011;8661;45.700;4.880;2023-03-24T08:27:43;4.20;;;1.53;;
17091;SDS011;8661;45.700;4.880;2023-03-24T08:30:13;2.30;;;1.60;;
17091;SDS011;8661;45.700;4.880;2023-03-24T08:32:45;4.87;;;2.60;;
17091;SDS011;8661;45.700;4.880;2023-03-24T08:35:14;4.20;;;1.73;;
17091;SDS011;8661;45.700;4.880;2023-03-24T08:37:42;2.30;;;1.70;;
17091;SDS011;8661;45.700;4.880;2023-03-24T08:40:11;3.87;;;2.00;;
17091;SDS011;8661;45.700;4.880;2023-03-24T08:42:45;2.57;;;1.47;;
17091;SDS011;8661;45.700;4.880;2023-03-24T08:45:13;2.17;;;1.70;;
17091;SDS011;8661;45.700;4.880;2023-03-24T08:47:40;1.50;;;1.40;;
17091;SDS011;8661;45.700;4.880;2023-03-24T08:50:07;3.40;;;1.77;;
17091;SDS011;8661;45.700;4.880;2023-03-24T08:52:35;3.43;;;1.77;;
17091;SDS011;8661;45.700;4.880;2023-03-24T08:55:02;3.53;;;1.70;;
17091;SDS011;8661;45.700;4.880;2023-03-24T08:57:29;2.87;;;1.77;;
17091;SDS011;8661;45.700;4.880;2023-03-24T08:59:58;2.33;;;1.70;;
17091;SDS011;8661;45.700;4.880;2023-03-24T09:02:25;2.53;;;1.80;;
17091;SDS011;8661;45.700;4.880;2023-03-24T09:04:52;2.53;;;1.70;;
17091;SDS011;8661;45.700;4.880;2023-03-24T09:07:20;3.60;;;1.80;;
17091;SDS011;8661;45.700;4.880;2023-03-24T09:09:47;2.80;;;1.77;;
17091;SDS011;8661;45.700;4.880;2023-03-24T09:12:14;3.20;;;1.53;;
17091;SDS011;8661;45.700;4.880;2023-03-24T09:14:41;3.60;;;1.53;;
17091;SDS011;8661;45.700;4.880;2023-03-24T09:17:15;1.50;;;1.40;;
17091;SDS011;8661;45.700;4.880;2023-03-24T09:19:42;4.07;;;1.57;;
17091;SDS011;8661;45.700;4.880;2023-03-24T09:22:11;2.77;;;1.33;;
17091;SDS011;8661;45.700;4.880;2023-03-24T09:24:38;1.93;;;1.30;;
17091;SDS011;8661;45.700;4.880;2023-03-24T09:27:05;1.30;;;1.20;;
17091;SDS011;8661;45.700;4.880;2023-03-24T09:29:31;1.43;;;1.10;;
17091;SDS011;8661;45.700;4.880;2023-03-24T09:31:58;2.13;;;1.30;;
17091;SDS011;8661;45.700;4.880;2023-03-24T09:34:27;1.53;;;1.40;;
17091;SDS011;8661;45.700;4.880;2023-03-24T09:36:54;1.17;;;1.07;;
17091;SDS011;8661;45.700;4.880;2023-03-24T09:39:21;3.30;;;1.30;;
17091;SDS011;8661;45.700;4.880;2023-03-24T09:41:48;1.40;;;1.30;;
17091;SDS011;8661;45.700;4.880;2023-03-24T09:44:20;2.30;;;1.40;;
17091;SDS011;8661;45.700;4.880;2023-03-24T09:46:51;1.60;;;1.27;;
17091;SDS011;8661;45.700;4.880;2023-03-24T09:49:23;3.03;;;1.40;;
17091;SDS011;8661;45.700;4.880;2023-03-24T09:51:55;1.70;;;1.10;;
17091;SDS011;8661;45.700;4.880;2023-03-24T09:54:30;2.03;;;1.43;;
17091;SDS011;8661;45.700;4.880;2023-03-24T09:57:04;2.00;;;1.10;;
17091;SDS011;8661;45.700;4.880;2023-03-24T09:59:39;2.00;;;1.20;;
17091;SDS011;8661;45.700;4.880;2023-03-24T10:02:09;1.30;;;1.20;;
17091;SDS011;8661;45.700;4.880;2023-03-24T10:04:40;1.67;;;1.00;;
17091;SDS011;8661;45.700;4.880;2023-03-24T10:07:08;4.10;;;1.00;;
17091;SDS011;8661;45.700;4.880;2023-03-24T10:09:43;4.63;;;1.20;;
17091;SDS011;8661;45.700;4.880;2023-03-24T10:12:19;1.30;;;1.20;;
17091;SDS011;8661;45.700;4.880;2023-03-24T10:14:55;2.13;;;1.30;;
17091;SDS011;8661;45.700;4.880;2023-03-24T10:17:33;2.83;;;1.27;;
17091;SDS011;8661;45.700;4.880;2023-03-24T10:20:15;1.20;;;1.10;;
17091;SDS011;8661;45.700;4.880;2023-03-24T10:22:54;1.50;;;1.20;;
17091;SDS011;8661;45.700;4.880;2023-03-24T10:25:28;1.47;;;1.20;;
17091;SDS011;8661;45.700;4.880;2023-03-24T10:28:10;1.47;;;1.20;;
17091;SDS011;8661;45.700;4.880;2023-03-24T10:30:44;1.43;;;1.33;;
17091;SDS011;8661;45.700;4.880;2023-03-24T10:33:12;2.47;;;1.50;;
17091;SDS011;8661;45.700;4.880;2023-03-24T10:35:42;3.93;;;1.40;;
17091;SDS011;8661;45.700;4.880;2023-03-24T10:38:18;1.63;;;1.10;;
17091;SDS011;8661;45.700;4.880;2023-03-24T10:40:46;1.43;;;1.30;;
17091;SDS011;8661;45.700;4.880;2023-03-24T10:43:14;2.33;;;1.37;;
17091;SDS011;8661;45.700;4.880;2023-03-24T10:45:43;1.33;;;1.20;;
17091;SDS011;8661;45.700;4.880;2023-03-24T10:48:13;2.20;;;1.50;;
17091;SDS011;8661;45.700;4.880;2023-03-24T10:50:59;2.17;;;1.40;;
17091;SDS011;8661;45.700;4.880;2023-03-24T10:53:26;2.60;;;1.60;;
17091;SDS011;8661;45.700;4.880;2023-03-24T10:55:54;3.43;;;1.33;;
17091;SDS011;8661;45.700;4.880;2023-03-24T10:58:25;2.27;;;1.50;;
17091;SDS011;8661;45.700;4.880;2023-03-24T11:01:00;2.10;;;1.30;;
17091;SDS011;8661;45.700;4.880;2023-03-24T11:03:28;2.87;;;1.33;;
17091;SDS011;8661;45.700;4.880;2023-03-24T11:05:57;1.30;;;1.20;;
17091;SDS011;8661;45.700;4.880;2023-03-24T11:08:31;1.90;;;1.00;;
17091;SDS011;8661;45.700;4.880;2023-03-24T11:10:59;1.83;;;1.40;;
17091;SDS011;8661;45.700;4.880;2023-03-24T11:13:28;2.90;;;1.50;;
17091;SDS011;8661;45.700;4.880;2023-03-24T11:16:03;3.23;;;1.60;;
17091;SDS011;8661;45.700;4.880;2023-03-24T11:18:34;2.53;;;1.67;;
17091;SDS011;8661;45.700;4.880;2023-03-24T11:21:03;2.50;;;1.30;;
17091;SDS011;8661;45.700;4.880;2023-03-24T11:23:36;3.13;;;1.40;;
17091;SDS011;8661;45.700;4.880;2023-03-24T11:26:06;1.53;;;1.40;;
17091;SDS011;8661;45.700;4.880;2023-03-24T11:28:36;1.37;;;1.27;;
17091;SDS011;8661;45.700;4.880;2023-03-24T11:31:06;2.20;;;1.40;;
17091;SDS011;8661;45.700;4.880;2023-03-24T11:33:40;2.33;;;1.30;;
17091;SDS011;8661;45.700;4.880;2023-03-24T11:39:09;2.07;;;1.40;;
17091;SDS011;8661;45.700;4.880;2023-03-24T11:41:38;4.07;;;2.13;;
17091;SDS011;8661;45.700;4.880;2023-03-24T11:44:15;3.17;;;1.50;;
17091;SDS011;8661;45.700;4.880;2023-03-24T11:46:43;2.50;;;1.70;;
17091;SDS011;8661;45.700;4.880;2023-03-24T11:49:15;4.17;;;1.60;;
17091;SDS011;8661;45.700;4.880;2023-03-24T11:51:48;2.23;;;1.47;;
17091;SDS011;8661;45.700;4.880;2023-03-24T11:54:18;1.50;;;1.40;;
17091;SDS011;8661;45.700;4.880;2023-03-24T11:56:49;3.33;;;1.70;;
17091;SDS011;8661;45.700;4.880;2023-03-24T11:59:20;1.60;;;1.43;;
17091;SDS011;8661;45.700;4.880;2023-03-24T12:01:57;2.13;;;1.60;;
17091;SDS011;8661;45.700;4.880;2023-03-24T12:04:34;4.87;;;2.07;;
17091;SDS011;8661;45.700;4.880;2023-03-24T12:10:43;2.20;;;1.70;;
17091;SDS011;8661;45.700;4.880;2023-03-24T12:13:21;2.37;;;1.60;;
17091;SDS011;8661;45.700;4.880;2023-03-24T12:15:59;3.97;;;1.73;;
17091;SDS011;8661;45.700;4.880;2023-03-24T12:18:47;4.50;;;2.00;;
17091;SDS011;8661;45.700;4.880;2023-03-24T12:21:41;1.97;;;1.53;;
17091;SDS011;8661;45.700;4.880;2023-03-24T12:24:19;1.80;;;1.50;;
17091;SDS011;8661;45.700;4.880;2023-03-24T12:26:54;2.87;;;1.77;;
17091;SDS011;8661;45.700;4.880;2023-03-24T12:29:30;3.07;;;1.73;;
17091;SDS011;8661;45.700;4.880;2023-03-24T12:32:18;2.83;;;1.80;;
17091;SDS011;8661;45.700;4.880;2023-03-24T12:34:56;3.90;;;1.73;;
17091;SDS011;8661;45.700;4.880;2023-03-24T12:37:46;4.90;;;2.00;;
17091;SDS011;8661;45.700;4.880;2023-03-24T12:40:26;6.20;;;2.40;;
17091;SDS011;8661;45.700;4.880;2023-03-24T12:43:05;3.70;;;2.13;;
17091;SDS011;8661;45.700;4.880;2023-03-24T12:45:44;3.63;;;1.90;;
17091;SDS011;8661;45.700;4.880;2023-03-24T12:48:19;6.80;;;2.27;;
17091;SDS011;8661;45.700;4.880;2023-03-24T12:50:59;3.87;;;2.00;;
17091;SDS011;8661;45.700;4.880;2023-03-24T12:53:38;6.17;;;1.90;;
17091;SDS011;8661;45.700;4.880;2023-03-24T12:56:15;3.70;;;2.07;;
17091;SDS011;8661;45.700;4.880;2023-03-24T12:58:47;3.60;;;2.27;;
17091;SDS011;8661;45.700;4.880;2023-03-24T13:01:18;3.10;;;2.20;;
17091;SDS011;8661;45.700;4.880;2023-03-24T13:03:49;6.47;;;2.47;;
17091;SDS011;8661;45.700;4.880;2023-03-24T13:06:21;4.13;;;2.33;;
17091;SDS011;8661;45.700;4.880;2023-03-24T13:09:02;8.63;;;2.73;;
17091;SDS011;8661;45.700;4.880;2023-03-24T13:11:36;4.73;;;2.90;;
17091;SDS011;8661;45.700;4.880;2023-03-24T13:14:10;3.10;;;2.00;;
17091;SDS011;8661;45.700;4.880;2023-03-24T13:16:40;4.83;;;2.40;;
17091;SDS011;8661;45.700;4.880;2023-03-24T13:19:13;4.43;;;2.33;;
17091;SDS011;8661;45.700;4.880;2023-03-24T13:21:44;2.70;;;2.13;;
17091;SDS011;8661;45.700;4.880;2023-03-24T13:24:13;4.70;;;3.10;;
17091;SDS011;8661;45.700;4.880;2023-03-24T13:26:43;4.90;;;2.87;;
17091;SDS011;8661;45.700;4.880;2023-03-24T13:29:26;5.93;;;2.90;;
17091;SDS011;8661;45.700;4.880;2023-03-24T13:32:16;5.63;;;2.87;;
17091;SDS011;8661;45.700;4.880;2023-03-24T13:34:54;4.13;;;2.50;;
17091;SDS011;8661;45.700;4.880;2023-03-24T13:37:30;4.90;;;2.80;;
17091;SDS011;8661;45.700;4.880;2023-03-24T13:40:00;4.67;;;2.87;;
17091;SDS011;8661;45.700;4.880;2023-03-24T13:42:41;4.67;;;3.20;;
17091;SDS011;8661;45.700;4.880;2023-03-24T13:45:17;3.93;;;2.53;;
17091;SDS011;8661;45.700;4.880;2023-03-24T13:47:50;3.90;;;2.47;;
17091;SDS011;8661;45.700;4.880;2023-03-24T13:50:29;3.23;;;2.30;;
17091;SDS011;8661;45.700;4.880;2023-03-24T13:52:57;3.83;;;2.40;;
17091;SDS011;8661;45.700;4.880;2023-03-24T13:55:33;3.43;;;2.40;;
17091;SDS011;8661;45.700;4.880;2023-03-24T13:58:05;3.90;;;2.43;;
17091;SDS011;8661;45.700;4.880;2023-03-24T14:01:03;6.33;;;2.80;;
17091;SDS011;8661;45.700;4.880;2023-03-24T14:03:32;4.50;;;3.07;;
17091;SDS011;8661;45.700;4.880;2023-03-24T14:06:01;6.70;;;3.03;;
17091;SDS011;8661;45.700;4.880;2023-03-24T14:08:34;5.07;;;2.40;;
17091;SDS011;8661;45.700;4.880;2023-03-24T14:11:09;5.43;;;2.93;;
17091;SDS011;8661;45.700;4.880;2023-03-24T14:14:25;3.80;;;2.80;;
17091;SDS011;8661;45.700;4.880;2023-03-24T14:17:01;3.03;;;2.70;;
17091;SDS011;8661;45.700;4.880;2023-03-24T14:19:36;4.67;;;2.50;;
17091;SDS011;8661;45.700;4.880;2023-03-24T14:22:08;6.67;;;2.20;;
17091;SDS011;8661;45.700;4.880;2023-03-24T14:24:39;2.60;;;2.30;;
17091;SDS011;8661;45.700;4.880;2023-03-24T14:27:21;4.20;;;2.40;;
17091;SDS011;8661;45.700;4.880;2023-03-24T14:30:00;4.70;;;2.77;;
17091;SDS011;8661;45.700;4.880;2023-03-24T14:32:35;6.27;;;2.50;;
17091;SDS011;8661;45.700;4.880;2023-03-24T14:35:04;5.83;;;2.63;;
17091;SDS011;8661;45.700;4.880;2023-03-24T14:40:21;0.00;;;0.00;;
17091;SDS011;8661;45.700;4.880;2023-03-24T14:42:55;0.00;;;0.00;;
17091;SDS011;8661;45.700;4.880;2023-03-24T14:48:27;0.00;;;0.00;;
17091;SDS011;8661;45.700;4.880;2023-03-24T14:50:58;0.10;;;0.10;;
17091;SDS011;8661;45.700;4.880;2023-03-24T14:53:29;0.00;;;0.00;;
17091;SDS011;8661;45.700;4.880;2023-03-24T14:55:55;0.00;;;0.00;;
17091;SDS011;8661;45.700;4.880;2023-03-24T14:58:25;0.00;;;0.00;;
17091;SDS011;8661;45.700;4.880;2023-03-24T15:01:01;0.00;;;0.00;;
17091;SDS011;8661;45.700;4.880;2023-03-24T15:03:32;0.77;;;0.30;;
17091;SDS011;8661;45.700;4.880;2023-03-24T15:06:11;0.10;;;0.10;;
17091;SDS011;8661;45.700;4.880;2023-03-24T15:08:40;0.10;;;0.10;;
17091;SDS011;8661;45.700;4.880;2023-03-24T15:11:12;0.00;;;0.00;;
17091;SDS011;8661;45.700;4.880;2023-03-24T15:13:41;0.10;;;0.10;;
17091;SDS011;8661;45.700;4.880;2023-03-24T15:16:17;0.20;;;0.20;;
17091;SDS011;8661;45.700;4.880;2023-03-24T15:18:46;0.00;;;0.00;;
17091;SDS011;8661;45.700;4.880;2023-03-24T15:21:18;0.00;;;0.00;;
17091;SDS011;8661;45.700;4.880;2023-03-24T15:23:48;0.00;;;0.00;;
17091;SDS011;8661;45.700;4.880;2023-03-24T15:26:17;0.00;;;0.00;;
17091;SDS011;8661;45.700;4.880;2023-03-24T15:28:52;0.00;;;0.00;;
17091;SDS011;8661;45.700;4.880;2023-03-24T15:31:21;0.20;;;0.20;;
17091;SDS011;8661;45.700;4.880;2023-03-24T15:33:54;0.00;;;0.00;;
17091;SDS011;8661;45.700;4.880;2023-03-24T15:36:32;0.20;;;0.20;;
17091;SDS011;8661;45.700;4.880;2023-03-24T15:39:14;0.10;;;0.10;;
17091;SDS011;8661;45.700;4.880;2023-03-24T15:41:42;0.10;;;0.10;;
17091;SDS011;8661;45.700;4.880;2023-03-24T15:44:12;0.10;;;0.10;;
17091;SDS011;8661;45.700;4.880;2023-03-24T15:46:44;0.00;;;0.00;;
17091;SDS011;8661;45.700;4.880;2023-03-24T15:49:15;0.10;;;0.10;;
17091;SDS011;8661;45.700;4.880;2023-03-24T15:51:50;0.00;;;0.00;;